Terminal Aerodrome Forecast
Issued by NWS New Orleans/Baton Rouge, LA

Home | Current Version | Previous Version | Text Only | Print | Product List | Glossary On
Versions: 1 2 3 4 5 6 7 8 9 10 11 12 13 14 15
703
FTUS44 KLIX 142322
TAFBTR
TAF
KBTR 142322Z 1500/1524 17010KT P6SM OVC050
     FM150700 13007KT P6SM SCT010 OVC025
     FM151500 18010KT 5SM SHRA OVC010
     FM151700 21011KT 5SM SHRA OVC025
      TEMPO 1517/1520 2SM TSRA BKN010CB
     FM152100 25009KT P6SM OVC030=

USA.gov is the U.S. government's official web portal to all federal, state and local government web resources and services.